Latest Weather Observations for Yamba

IDN60801

Issued at 3:35 pm EDT Friday 31 October 2014 (issued every 30 minutes, with the page automatically refreshed every 10 minutes)

About weather observations | Map of weather stations | Latest weather observations for NSW | Other Formats
Station Details ID: 058012 Name: YAMBA PILOT STATION Lat: -29.43 Lon: 153.36 Height: 27.4 m
Data from the previous 72 hours. | See also: Recent months at Yamba
Date/Time
EDT
Temp
°C
App
Temp
°C
Dew
Point
Rel
Hum
%
Delta-T
°C
Wind Press
QNH
hPa
Press
MSL
hPa
Rain
since 9 am
mm
Dir
 
Spd
km/h
Gust
km/h
Spd
kts
Gust
kts
31/03:30pm 26.0 - - - - NNE 20 30 11 16 1011.4 - 0.0
31/03:00pm 26.9 - - - - N 20 32 11 17 1011.9 1011.8 0.0
31/02:30pm 27.3 - - - - NNE 20 32 11 17 1012.3 - 0.0
31/02:00pm 27.5 - - - - N 19 28 10 15 1012.8 - 0.0
31/01:30pm 27.6 - - - - N 20 30 11 16 1013.4 - 0.0
31/01:00pm 27.8 - - - - NNE 17 24 9 13 1013.9 - 0.0
31/12:30pm 27.8 - - - - N 15 26 8 14 1014.4 - 0.0
31/12:00pm 27.9 - - - - N 15 20 8 11 1014.8 1014.6 0.0
31/11:30am 27.1 - - - - N 11 17 6 9 1015.4 - 0.0
31/11:00am 26.2 - - - - NNE 11 19 6 10 1015.8 - 0.0
31/10:30am 26.0 - - - - NNE 11 15 6 8 1015.9 - 0.0
31/10:00am 26.5 - - - - N 9 15 5 8 1016.1 - 0.0
31/09:30am 25.3 - - - - N 9 15 5 8 1016.3 - 0.0
31/09:00am 24.5 - - - - N 6 13 3 7 1016.3 1016.1 0.0
31/08:30am 22.9 - - - - NW 9 13 5 7 1016.4 - 0.0
31/08:00am 21.6 - - - - NW 7 11 4 6 1016.3 - 0.0
31/07:30am 20.2 - - - - NNW 7 11 4 6 1016.1 - 0.0
31/07:00am 19.4 - - - - WNW 9 13 5 7 1015.9 - 0.0
31/06:30am 19.0 - - - - NW 11 13 6 7 1015.6 - 0.0
31/06:00am 18.9 - - - - NW 9 11 5 6 1015.3 1015.1 0.0
31/05:30am 18.8 - - - - NW 7 11 4 6 1015.1 - 0.0
31/05:00am 19.3 - - - - NNW 7 11 4 6 1014.9 - 0.0
31/04:30am 19.5 - - - - N 9 13 5 7 1014.7 - 0.0
31/04:00am 19.3 - - - - N 7 13 4 7 1014.7 - 0.0
31/03:30am 19.7 - - - - N 9 13 5 7 1014.5 - 0.0
31/03:00am 19.9 - - - - N 9 13 5 7 1014.6 1014.4 0.0
31/02:30am 20.0 - - - - N 9 15 5 8 1014.8 - 0.0
31/02:00am 19.7 - - - - N 11 15 6 8 1014.9 - 0.0
31/01:30am 19.9 - - - - NNW 9 15 5 8 1015.3 - 0.0
31/01:00am 20.2 - - - - NNW 11 17 6 9 1015.7 - 0.0
31/12:30am 20.7 - - - - N 13 19 7 10 1015.8 - 0.0
31/12:00am 21.1 - - - - N 11 20 6 11 1015.7 1015.5 0.0
 
Date/Time
EDT
Temp
°C
App
Temp
°C
Dew
Point
Rel
Hum
%
Delta-T
°C
Wind Press
QNH
hPa
Press
MSL
hPa
Rain
since 9 am
mm
Dir
 
Spd
km/h
Gust
km/h
Spd
kts
Gust
kts
30/11:30pm 21.3 - - - - N 11 22 6 12 1015.7 - 0.0
30/11:00pm 21.4 - - - - N 13 24 7 13 1015.4 - 0.0
30/10:30pm 21.4 - - - - N 13 26 7 14 1015.1 - 0.0
30/10:00pm 21.5 - - - - N 13 20 7 11 1015.0 - 0.0
30/09:30pm 21.7 - - - - N 15 26 8 14 1015.0 - 0.0
30/09:00pm 21.7 - - - - N 13 22 7 12 1014.9 1014.7 0.0
30/08:30pm 21.7 - - - - N 15 24 8 13 1014.5 - 0.0
30/08:00pm 21.8 - - - - N 17 26 9 14 1014.1 - 0.0
30/07:30pm 21.9 - - - - N 19 26 10 14 1013.6 - 0.0
30/07:00pm 22.1 - - - - NNE 17 28 9 15 1013.7 - 0.0
30/06:30pm 22.5 - - - - NNE 17 24 9 13 1013.5 - 0.0
30/06:00pm 23.0 - - - - NNE 17 24 9 13 1013.1 1013.0 0.0
30/05:30pm 23.6 - - - - NNE 15 24 8 13 1013.1 - 0.0
30/05:00pm 24.5 - - - - NNE 17 22 9 12 1013.1 - 0.0
30/04:30pm 25.1 - - - - NNE 15 22 8 12 1013.0 - 0.0
30/04:00pm 24.7 - - - - NNE 17 28 9 15 1012.9 - 0.0
30/03:30pm 24.6 - - - - NNE 17 28 9 15 1013.0 - 0.0
30/03:00pm 25.5 - - - - NNE 15 26 8 14 1013.5 1013.4 0.0
30/02:30pm 25.6 - - - - NE 15 24 8 13 1013.9 - 0.0
30/02:00pm 25.6 - - - - NE 13 20 7 11 1014.7 - 0.0
30/01:30pm 25.2 - - - - NE 15 24 8 13 1014.9 - 0.0
30/01:00pm 25.4 - - - - NE 15 20 8 11 1015.5 - 0.0
30/12:30pm 25.6 - - - - ENE 15 20 8 11 1016.1 - 0.0
30/12:00pm 25.6 - - - - ENE 13 20 7 11 1016.5 1016.3 0.0
30/11:30am 25.6 - - - - NE 11 17 6 9 1017.1 - 0.0
30/11:00am 26.1 - - - - NNE 11 15 6 8 1017.4 - 0.0
30/10:30am 25.6 - - - - NNE 9 13 5 7 1017.6 - 0.0
30/10:00am 23.6 - - - - NE 9 13 5 7 1018.0 - 0.0
30/09:30am 23.6 - - - - NW 7 11 4 6 1018.2 - 0.0
30/09:00am 22.8 - - - - NW 6 9 3 5 1018.2 1018.0 0.0
30/08:54am 22.5 - - - - - - - - - 1018.3 - -
30/08:30am 21.3 - - - - W 7 11 4 6 1018.2 - 0.0
30/08:00am 19.5 - - - - WSW 9 11 5 6 1018.2 - 0.0
30/07:30am 18.0 - - - - WSW 9 13 5 7 1017.9 - 0.0
30/07:00am 16.9 - - - - SW 9 13 5 7 1017.6 - 0.0
30/06:30am 16.2 - - - - WSW 11 15 6 8 1017.4 - 0.0
30/06:00am 16.4 - - - - SW 9 15 5 8 1017.0 - 0.0
30/05:30am 16.6 - - - - SW 11 17 6 9 1016.8 - 0.0
30/05:00am 16.7 - - - - SW 13 15 7 8 1016.8 - 0.0
30/04:30am 16.5 - - - - WSW 9 13 5 7 1016.8 - 0.0
30/04:00am 16.7 - - - - SW 9 13 5 7 1016.8 - 0.0
30/03:30am 17.0 - - - - WSW 9 11 5 6 1016.9 - 0.0
30/03:00am 17.3 - - - - WSW 9 11 5 6 1016.9 - 0.0
30/02:30am 17.6 - - - - WSW 9 11 5 6 1017.1 - 0.0
30/02:00am 17.5 - - - - WSW 9 11 5 6 1017.2 - 0.0
30/01:30am 17.4 - - - - WSW 11 15 6 8 1017.6 - 0.0
30/01:00am 17.8 - - - - SW 9 11 5 6 1017.7 - 0.0
30/12:30am 18.7 - - - - SW 7 9 4 5 1018.0 - 0.0
30/12:00am 19.4 - - - - E 2 6 1 3 1018.2 - 0.0
 
Date/Time
EDT
Temp
°C
App
Temp
°C
Dew
Point
Rel
Hum
%
Delta-T
°C
Wind Press
QNH
hPa
Press
MSL
hPa
Rain
since 9 am
mm
Dir
 
Spd
km/h
Gust
km/h
Spd
kts
Gust
kts
29/11:30pm 20.5 - - - - ESE 7 9 4 5 1018.3 - 0.0
29/11:00pm 20.8 - - - - ESE 9 11 5 6 1018.3 - 0.0
29/10:30pm 20.9 - - - - ESE 9 13 5 7 1018.2 - 0.0
29/10:00pm 21.1 - - - - ESE 11 15 6 8 1018.2 - 0.0
29/09:30pm 21.1 - - - - ESE 11 15 6 8 1018.1 - 0.0
29/09:00pm 21.2 - - - - ESE 11 17 6 9 1017.9 - 0.0
29/08:30pm 20.9 - - - - ESE 13 17 7 9 1017.4 - 0.0
29/08:00pm 21.0 - - - - ESE 15 19 8 10 1017.0 - 0.0
29/07:30pm 21.3 - - - - ESE 15 20 8 11 1016.8 - 0.0
29/07:00pm 21.5 - - - - ESE 15 20 8 11 1016.5 - 0.0
29/06:30pm 22.0 - - - - ESE 19 20 10 11 1016.3 - 0.0
29/06:00pm 22.6 - - - - ESE 19 26 10 14 1016.0 - 0.0
29/05:30pm 23.2 - - - - ESE 20 28 11 15 1015.5 - 0.0
29/05:00pm 23.6 - - - - ESE 20 30 11 16 1015.1 - 0.0
29/04:30pm 23.9 - - - - ESE 26 32 14 17 1015.0 - 0.0
29/04:00pm 24.3 - - - - SE 28 33 15 18 1015.1 - 0.0
29/03:30pm 24.2 - - - - SE 26 32 14 17 1015.4 - 0.0
29/03:00pm 23.8 - - - - SE 24 30 13 16 1015.7 1015.5 0.0
29/02:30pm 24.2 - - - - SE 24 32 13 17 1016.0 - 0.0
29/02:00pm 23.1 - - - - SSE 28 35 15 19 1016.2 - 0.0
29/01:30pm 23.6 - - - - SSE 26 32 14 17 1016.2 - 0.0
29/01:00pm 23.5 - - - - SSE 28 37 15 20 1016.4 - 0.0
29/12:30pm 24.8 - - - - SSE 24 33 13 18 1016.5 - 0.0
29/12:00pm 24.5 - - - - SSE 24 35 13 19 1016.8 - 0.0
29/11:30am 24.8 - - - - SSE 22 32 12 17 1016.9 - 0.0
29/11:00am 24.2 - - - - SSE 20 28 11 15 1017.0 - 0.0
29/10:30am 24.3 - - - - SSE 20 26 11 14 1017.0 - 0.0
29/10:00am 23.9 - - - - SSE 20 28 11 15 1016.7 - 0.0
29/09:30am 23.2 - - - - SSE 19 24 10 13 1016.5 - 0.0
29/09:00am 23.0 - - - - SSE 17 24 9 13 1016.3 1016.1 0.0
29/08:30am 22.0 - - - - SSE 17 24 9 13 1015.9 - 0.0
29/08:00am 20.5 - - - - S 15 22 8 12 1015.6 - 0.0
29/07:30am 19.7 - - - - S 9 11 5 6 1015.2 - 0.0
29/07:00am 18.4 - - - - S 13 17 7 9 1014.8 - 0.0
29/06:30am 17.4 - - - - S 13 17 7 9 1014.5 - 0.0
29/06:00am 17.1 - - - - SW 11 13 6 7 1013.9 1013.8 0.0
29/05:30am 17.0 - - - - SW 11 13 6 7 1013.4 - 0.0
29/05:00am 17.0 - - - - SW 9 11 5 6 1013.0 - 0.0
29/04:30am 16.9 - - - - WSW 9 11 5 6 1012.5 - 0.0
29/04:00am 17.0 - - - - WSW 9 11 5 6 1012.4 - 0.0
29/03:30am 17.7 - - - - SW 9 13 5 7 1012.3 - 0.0
29/03:00am 18.0 - - - - SW 9 13 5 7 1012.1 1012.0 0.0
29/02:30am 17.7 - - - - SW 11 15 6 8 1012.2 - 0.0
29/02:00am 17.9 - - - - WSW 9 13 5 7 1012.3 - 0.0
29/01:30am 18.8 - - - - SW 9 11 5 6 1012.3 - 0.0
29/01:00am 19.3 - - - - SSW 7 9 4 5 1012.4 - 0.0
29/12:30am 19.9 - - - - SSW 9 11 5 6 1012.8 - 0.0
29/12:00am 20.0 - - - - S 11 13 6 7 1012.9 1012.8 0.0
 
Date/Time
EDT
Temp
°C
App
Temp
°C
Dew
Point
Rel
Hum
%
Delta-T
°C
Wind Press
QNH
hPa
Press
MSL
hPa
Rain
since 9 am
mm
Dir
 
Spd
km/h
Gust
km/h
Spd
kts
Gust
kts
28/11:30pm 20.1 - - - - SSE 7 11 4 6 1012.7 - 0.0
28/11:00pm 20.1 - - - - ENE 2 7 1 4 1012.7 - 0.0
28/10:30pm 20.4 - - - - CALM 0 0 0 0 1012.4 - 0.0
28/10:00pm 20.2 - - - - CALM 0 0 0 0 1012.1 - 0.0
28/09:30pm 20.5 - - - - CALM 0 0 0 0 1012.0 - 0.0
28/09:00pm 20.6 - - - - NNE 2 6 1 3 1012.0 1011.9 0.0
28/08:30pm 20.6 - - - - CALM 0 4 0 2 1011.7 - 0.0
28/08:00pm 20.8 - - - - NNE 4 7 2 4 1011.3 - 0.0
28/07:30pm 21.0 - - - - NNE 6 9 3 5 1011.0 - 0.0
28/07:00pm 21.6 - - - - ENE 7 9 4 5 1010.6 - 0.0
28/06:30pm 22.4 - - - - ENE 7 11 4 6 1010.2 - 0.0
28/06:00pm 23.0 - - - - E 7 11 4 6 1010.2 1010.1 0.0
28/05:30pm 23.5 - - - - E 9 11 5 6 1009.8 - 0.0
28/05:00pm 23.6 - - - - ESE 9 13 5 7 1009.7 - 0.0
28/04:30pm 23.2 - - - - SE 15 20 8 11 1009.8 - 0.0
28/04:00pm 23.4 - - - - SE 17 20 9 11 1009.8 - 0.0

Other Formats:

Comma delimited format used in spreadsheet applications
http://www.bom.gov.au/fwo/IDN60801/IDN60801.94589.axf

JavaScript Object Notation format (JSON) in row-major order
http://www.bom.gov.au/fwo/IDN60801/IDN60801.94589.json